Hlavní strana
METAR-TAF:

METAR-TAF

Letiště :

Tegucigalpa, Honduras

zeměpisná šířka: 14-03N, zeměpisná délka: 087-13W, výška: 994 m

Aktuální stav počasí

Zpráva byla vytvořena před 53 minutami, v 01:00 UTC
Jižní vítr 4 kt
Teplota 23°C
Vlhkost vzduchu 57%
Tlak 1017 hPa
Viditelnost 10 km a více
Skoro jasno ve výšce 3000 ft
Polojasno ve výšce 20000 ft

METAR: MHTG 260100Z 18004KT 9999 FEW030 SCT200 23/14 Q1017 A3003 NOSIG

Čas: 19:53 (01:53 UTC)

Předpověď počasí

Zpráva byla vytvořena před 3 hodinami a 38 minutami, v 22:15 UTC
Předpověď platná od 26 v 00 UTC do 26 v 24 UTC
Jihozápadní vítr 5 kt
Viditelnost 10 km a více
Polojasno ve výšce 2800 ft
Změna
od 26 v 01 UTC do 26 v 03 UTC
Skoro jasno ve výšce 2600 ft
Změna
od 26 v 18 UTC do 26 v 20 UTC
Východojihovýchodní vítr 4 kt

TAF: MHTG 252215Z 2600/2624 22005KT 9999 SCT028 TX30/2621Z TN14/2612Z BECMG 2601/2603 FEW026 BECMG 2618/2620 12004KT

Stav a předpovědi počasí z více než 4 000 letišť (zprávy METAR a TAF).

Červené a žluté tečky na mapě představují dostupné meteorologické stanice.

Když kurzor umístíte na tečku, zobrazí se název stanice.

Pak kliknutím zobrazíte stav a předpověď počasí.

Chcete-li změnit mapu, kliknutím na zelené tlačítko se znaménkem +mapu přiblížíte, kliknutím na zelené tlačítko se znaménkem – mapu oddálíte a kliknutím na zelené šipky přejdete na sousední mapy.


METAR-TAF: